Aloandia, Brazil
Current Conditions -  °F | °C
As of 4:00 PM on Thursday 27 Nov 2014 (Local Time) from SBGO Reporting Station
Scattered Clouds Scattered Clouds  
Wind Chill: 86°   Ceiling: Unl
Heat Index: 87°   Visibility: 6mi
Dew Point: 63°   Wind: 12mph
Humidity: 45%   Direction: 290°WNW
Pressure: 29.88"   Gusts: NA
Location:  17.73°S, 49.48°W
Report Text: SBGO 271800Z 29010KT 9999 SCT040 FEW048TCU 30/17 Q1012
Loading
Personal Weather Stations






























Interactive Weather Map New forecast layout! Learn more

10-Day Weather Forecast

Advertisements
Track Severe Weather on mobile